This is the latest recevied weather packets stored in our database for station/object KZ4HT-13. If no packets are shown the sender has not sent any weather packets the latest 10 day(s).
| Time | Temp. | Humidity | Pressure | Rain* | Wind** | Luminosity | Snow |
|---|---|---|---|---|---|---|---|
| 1777716055 | 18.89° C | 96% | 1010.7 hPa | 0 mm | - | - | - |
| 1777713648 | 19.44° C | 96% | 1010.8 hPa | 0 mm | - | - | - |
| 1777707032 | 20.56° C | 92% | 1011.1 hPa | 0 mm | - | - | - |
| 1777704024 | 21.11° C | 90% | 1011.4 hPa | 0 mm | - | - | - |
| 1777700494 | 21.11° C | 86% | 1011.7 hPa | 0 mm | - | - | - |
| 1777689644 | 24.44° C | 69% | 1012.2 hPa | 0 mm | - | - | - |
| 1777689042 | 24.44° C | 67% | 1012.1 hPa | 0 mm | - | - | - |
| 1777687237 | 25.56° C | 63% | 1011.9 hPa | 0 mm | - | - | - |
| 1777684229 | 26.67° C | 58% | 1011.5 hPa | 0 mm | - | - | - |
| 1777682423 | 27.22° C | 54% | 1011 hPa | 0 mm | - | - | - |
| 1777677672 | 30° C | 46% | 1010 hPa | 0 mm | - | - | - |
| 1777676470 | 31.67° C | 43% | 1009.8 hPa | 0 mm | - | - | - |
| 1777675268 | 31.67° C | 44% | 1009.5 hPa | 0 mm | - | - | - |
| 1777671058 | 32.22° C | 41% | 1009.4 hPa | 0 mm | - | - | - |
| 1777669254 | 32.22° C | 40% | 1009.6 hPa | 0 mm | - | - | - |
| 1777659630 | 31.67° C | 43% | 1011.7 hPa | 0 mm | - | - | - |
| 1777659029 | 32.78° C | 42% | 1011.9 hPa | 0 mm | - | - | - |
| 1777657826 | 32.78° C | 45% | 1012 hPa | 0 mm | - | - | - |
| 1777653075 | 31.11° C | 51% | 1012.9 hPa | 0 mm | - | - | - |
| 1777650065 | 30.56° C | 52% | 1013.2 hPa | 0 mm | - | - | - |
| 1777647056 | 29.44° C | 60% | 1013.2 hPa | 0 mm | - | - | - |
| 1777644047 | 27.78° C | 68% | 1013.3 hPa | 0 mm | - | - | - |
| 1777638045 | 22.78° C | 92% | 1013.1 hPa | 0 mm | - | - | - |
| 1777636822 | 22.22° C | 94% | 1013 hPa | 0 mm | - | - | - |
| 1777635075 | 21.67° C | 95% | 1012.6 hPa | 0 mm | - | - | - |
* Rain since midnight (hover to see other rain measurements)
** Current wind speed in m/s (hover to see current wind gust speed)